sensor_id;sensor_type;location;lat;lon;timestamp;pressure;altitude;pressure_sealevel;temperature;humidity
71105;BME280;58760;48.716;8.962;2023-03-01T00:01:03;97165.78;;;-1.94;74.53
71105;BME280;58760;48.716;8.962;2023-03-01T00:03:29;97165.56;;;-1.90;74.82
71105;BME280;58760;48.716;8.962;2023-03-01T00:05:54;97157.25;;;-1.96;74.77
71105;BME280;58760;48.716;8.962;2023-03-01T00:08:20;97164.81;;;-1.92;75.03
71105;BME280;58760;48.716;8.962;2023-03-01T00:10:45;97160.41;;;-1.91;74.64
71105;BME280;58760;48.716;8.962;2023-03-01T00:13:10;97158.16;;;-1.97;74.91
71105;BME280;58760;48.716;8.962;2023-03-01T00:15:39;97155.72;;;-2.00;74.92
71105;BME280;58760;48.716;8.962;2023-03-01T00:18:05;97158.06;;;-2.12;75.17
71105;BME280;58760;48.716;8.962;2023-03-01T00:20:31;97161.03;;;-2.19;75.51
71105;BME280;58760;48.716;8.962;2023-03-01T00:22:56;97161.22;;;-2.22;75.78
71105;BME280;58760;48.716;8.962;2023-03-01T00:25:22;97167.56;;;-2.28;76.17
71105;BME280;58760;48.716;8.962;2023-03-01T00:27:47;97166.94;;;-2.33;76.71
71105;BME280;58760;48.716;8.962;2023-03-01T00:30:14;97166.59;;;-2.42;77.30
71105;BME280;58760;48.716;8.962;2023-03-01T00:32:39;97163.06;;;-2.41;77.38
71105;BME280;58760;48.716;8.962;2023-03-01T00:35:05;97166.38;;;-2.55;77.34
71105;BME280;58760;48.716;8.962;2023-03-01T00:37:31;97162.19;;;-2.57;77.76
71105;BME280;58760;48.716;8.962;2023-03-01T00:39:56;97161.19;;;-2.55;77.65
71105;BME280;58760;48.716;8.962;2023-03-01T00:42:21;97158.47;;;-2.53;77.67
71105;BME280;58760;48.716;8.962;2023-03-01T00:44:47;97154.22;;;-2.54;77.65
71105;BME280;58760;48.716;8.962;2023-03-01T00:47:12;97155.50;;;-2.63;77.68
71105;BME280;58760;48.716;8.962;2023-03-01T00:49:39;97156.44;;;-2.64;77.99
71105;BME280;58760;48.716;8.962;2023-03-01T00:52:04;97159.03;;;-2.64;78.27
71105;BME280;58760;48.716;8.962;2023-03-01T00:54:30;97155.66;;;-2.49;78.28
71105;BME280;58760;48.716;8.962;2023-03-01T00:56:55;97153.66;;;-2.44;77.61
71105;BME280;58760;48.716;8.962;2023-03-01T00:59:20;97151.69;;;-2.39;77.47
71105;BME280;58760;48.716;8.962;2023-03-01T01:01:46;97149.59;;;-2.32;77.10
71105;BME280;58760;48.716;8.962;2023-03-01T01:04:12;97138.72;;;-2.23;76.83
71105;BME280;58760;48.716;8.962;2023-03-01T01:06:41;97143.88;;;-2.22;76.63
71105;BME280;58760;48.716;8.962;2023-03-01T01:09:12;97144.78;;;-2.23;76.60
71105;BME280;58760;48.716;8.962;2023-03-01T01:11:43;97140.06;;;-2.32;76.65
71105;BME280;58760;48.716;8.962;2023-03-01T01:14:08;97133.88;;;-2.46;76.92
71105;BME280;58760;48.716;8.962;2023-03-01T01:16:34;97141.34;;;-2.40;77.23
71105;BME280;58760;48.716;8.962;2023-03-01T01:18:59;97139.16;;;-2.48;77.13
71105;BME280;58760;48.716;8.962;2023-03-01T01:21:25;97138.81;;;-2.57;77.57
71105;BME280;58760;48.716;8.962;2023-03-01T01:23:51;97137.97;;;-2.58;77.55
71105;BME280;58760;48.716;8.962;2023-03-01T01:26:22;97130.75;;;-2.53;77.76
71105;BME280;58760;48.716;8.962;2023-03-01T01:28:48;97130.59;;;-2.50;77.59
71105;BME280;58760;48.716;8.962;2023-03-01T01:31:14;97134.56;;;-2.43;77.70
71105;BME280;58760;48.716;8.962;2023-03-01T01:33:40;97131.75;;;-2.38;77.51
71105;BME280;58760;48.716;8.962;2023-03-01T01:36:07;97120.72;;;-2.43;77.52
71105;BME280;58760;48.716;8.962;2023-03-01T01:38:33;97123.84;;;-2.37;77.55
71105;BME280;58760;48.716;8.962;2023-03-01T01:40:59;97123.09;;;-2.39;77.48
71105;BME280;58760;48.716;8.962;2023-03-01T01:43:26;97115.22;;;-2.37;77.33
71105;BME280;58760;48.716;8.962;2023-03-01T01:48:45;97118.63;;;-2.52;77.82
71105;BME280;58760;48.716;8.962;2023-03-01T01:51:25;97118.88;;;-2.57;77.89
71105;BME280;58760;48.716;8.962;2023-03-01T01:53:53;97109.97;;;-2.53;77.99
71105;BME280;58760;48.716;8.962;2023-03-01T01:56:21;97113.97;;;-2.63;77.88
71105;BME280;58760;48.716;8.962;2023-03-01T01:58:48;97109.69;;;-2.64;77.88
71105;BME280;58760;48.716;8.962;2023-03-01T02:01:14;97105.41;;;-2.65;78.30
71105;BME280;58760;48.716;8.962;2023-03-01T02:03:43;97115.59;;;-2.78;78.52
71105;BME280;58760;48.716;8.962;2023-03-01T02:08:37;97112.31;;;-2.81;78.78
71105;BME280;58760;48.716;8.962;2023-03-01T02:11:04;97093.97;;;-2.78;79.00
71105;BME280;58760;48.716;8.962;2023-03-01T02:13:31;97098.41;;;-2.80;79.11
71105;BME280;58760;48.716;8.962;2023-03-01T02:15:58;97095.50;;;-2.74;79.22
71105;BME280;58760;48.716;8.962;2023-03-01T02:18:24;97097.31;;;-2.76;79.22
71105;BME280;58760;48.716;8.962;2023-03-01T02:23:38;97090.59;;;-2.63;79.22
71105;BME280;58760;48.716;8.962;2023-03-01T02:28:48;97076.34;;;-2.39;78.52
71105;BME280;58760;48.716;8.962;2023-03-01T02:31:18;97073.06;;;-2.42;78.86
71105;BME280;58760;48.716;8.962;2023-03-01T02:34:03;97075.09;;;-2.32;78.63
71105;BME280;58760;48.716;8.962;2023-03-01T02:36:36;97069.47;;;-2.24;78.03
71105;BME280;58760;48.716;8.962;2023-03-01T02:39:05;97066.63;;;-2.20;77.83
71105;BME280;58760;48.716;8.962;2023-03-01T02:41:35;97063.28;;;-2.22;78.22
71105;BME280;58760;48.716;8.962;2023-03-01T02:44:01;97073.19;;;-2.13;78.38
71105;BME280;58760;48.716;8.962;2023-03-01T02:46:27;97063.19;;;-2.04;78.03
71105;BME280;58760;48.716;8.962;2023-03-01T02:48:54;97061.53;;;-1.90;77.18
71105;BME280;58760;48.716;8.962;2023-03-01T02:54:27;97053.34;;;-1.82;76.93
71105;BME280;58760;48.716;8.962;2023-03-01T02:56:54;97052.22;;;-1.78;76.94
71105;BME280;58760;48.716;8.962;2023-03-01T02:59:24;97056.34;;;-1.74;77.04
71105;BME280;58760;48.716;8.962;2023-03-01T03:01:50;97045.19;;;-1.76;76.64
71105;BME280;58760;48.716;8.962;2023-03-01T03:04:17;97040.66;;;-1.73;76.92
71105;BME280;58760;48.716;8.962;2023-03-01T03:06:44;97040.06;;;-1.78;76.55
71105;BME280;58760;48.716;8.962;2023-03-01T03:09:09;97037.22;;;-1.73;76.54
71105;BME280;58760;48.716;8.962;2023-03-01T03:11:35;97039.53;;;-1.69;76.11
71105;BME280;58760;48.716;8.962;2023-03-01T03:14:02;97044.91;;;-1.72;76.52
71105;BME280;58760;48.716;8.962;2023-03-01T03:16:27;97037.03;;;-1.70;76.40
71105;BME280;58760;48.716;8.962;2023-03-01T03:18:55;97027.88;;;-1.62;76.60
71105;BME280;58760;48.716;8.962;2023-03-01T03:21:33;97027.19;;;-1.65;76.25
71105;BME280;58760;48.716;8.962;2023-03-01T03:23:59;97025.72;;;-1.69;76.32
71105;BME280;58760;48.716;8.962;2023-03-01T03:26:25;97025.94;;;-1.58;76.40
71105;BME280;58760;48.716;8.962;2023-03-01T03:28:50;97016.19;;;-1.54;76.44
71105;BME280;58760;48.716;8.962;2023-03-01T03:31:15;97020.47;;;-1.53;76.43
71105;BME280;58760;48.716;8.962;2023-03-01T03:33:41;97017.59;;;-1.49;76.15
71105;BME280;58760;48.716;8.962;2023-03-01T03:36:07;97021.31;;;-1.53;76.29
71105;BME280;58760;48.716;8.962;2023-03-01T03:38:39;97027.34;;;-1.52;76.66
71105;BME280;58760;48.716;8.962;2023-03-01T03:41:07;97021.72;;;-1.45;76.52
71105;BME280;58760;48.716;8.962;2023-03-01T03:43:34;97019.28;;;-1.48;76.04
71105;BME280;58760;48.716;8.962;2023-03-01T03:46:01;97025.22;;;-1.46;76.25
71105;BME280;58760;48.716;8.962;2023-03-01T03:48:32;97029.28;;;-1.40;76.00
71105;BME280;58760;48.716;8.962;2023-03-01T03:50:58;97016.81;;;-1.35;75.50
71105;BME280;58760;48.716;8.962;2023-03-01T03:53:25;97020.44;;;-1.38;75.67
71105;BME280;58760;48.716;8.962;2023-03-01T03:55:50;97024.44;;;-1.32;75.82
71105;BME280;58760;48.716;8.962;2023-03-01T03:58:17;97021.19;;;-1.36;75.63
71105;BME280;58760;48.716;8.962;2023-03-01T04:00:45;97012.03;;;-1.27;75.92
71105;BME280;58760;48.716;8.962;2023-03-01T04:03:14;97008.09;;;-1.20;74.66
71105;BME280;58760;48.716;8.962;2023-03-01T04:05:40;97009.53;;;-1.15;74.51
71105;BME280;58760;48.716;8.962;2023-03-01T04:08:07;97002.75;;;-1.17;74.90
71105;BME280;58760;48.716;8.962;2023-03-01T04:10:36;97005.13;;;-1.28;75.17
71105;BME280;58760;48.716;8.962;2023-03-01T04:13:03;96993.16;;;-1.17;75.05
71105;BME280;58760;48.716;8.962;2023-03-01T04:15:28;96996.69;;;-1.18;74.74
71105;BME280;58760;48.716;8.962;2023-03-01T04:17:54;97004.69;;;-1.21;75.01
71105;BME280;58760;48.716;8.962;2023-03-01T04:20:22;96998.03;;;-1.11;74.70
71105;BME280;58760;48.716;8.962;2023-03-01T04:25:41;96997.19;;;-1.11;74.39
71105;BME280;58760;48.716;8.962;2023-03-01T04:28:08;96988.41;;;-1.10;74.84
71105;BME280;58760;48.716;8.962;2023-03-01T04:30:35;96990.75;;;-1.06;74.37
71105;BME280;58760;48.716;8.962;2023-03-01T04:33:05;96987.22;;;-1.19;74.83
71105;BME280;58760;48.716;8.962;2023-03-01T04:35:31;96987.13;;;-1.17;75.58
71105;BME280;58760;48.716;8.962;2023-03-01T04:37:57;96989.25;;;-1.10;74.84
71105;BME280;58760;48.716;8.962;2023-03-01T04:40:22;96992.97;;;-1.14;74.83
71105;BME280;58760;48.716;8.962;2023-03-01T04:42:48;96986.94;;;-1.14;75.31
71105;BME280;58760;48.716;8.962;2023-03-01T04:45:13;96988.22;;;-1.07;74.97
71105;BME280;58760;48.716;8.962;2023-03-01T04:47:40;96999.13;;;-1.00;74.70
71105;BME280;58760;48.716;8.962;2023-03-01T04:50:06;96991.69;;;-1.07;74.52
71105;BME280;58760;48.716;8.962;2023-03-01T04:52:33;96989.25;;;-1.10;74.90
71105;BME280;58760;48.716;8.962;2023-03-01T04:54:58;96991.25;;;-0.99;74.71
71105;BME280;58760;48.716;8.962;2023-03-01T04:57:23;96983.50;;;-1.00;74.32
71105;BME280;58760;48.716;8.962;2023-03-01T04:59:49;96986.94;;;-1.00;74.82
71105;BME280;58760;48.716;8.962;2023-03-01T05:02:14;96983.06;;;-0.93;74.44
71105;BME280;58760;48.716;8.962;2023-03-01T05:04:39;96985.00;;;-0.96;74.09
71105;BME280;58760;48.716;8.962;2023-03-01T05:07:05;96983.50;;;-1.00;74.77
71105;BME280;58760;48.716;8.962;2023-03-01T05:09:30;96982.13;;;-0.92;74.83
71105;BME280;58760;48.716;8.962;2023-03-01T05:11:55;96987.59;;;-0.96;74.45
71105;BME280;58760;48.716;8.962;2023-03-01T05:14:21;96987.72;;;-0.98;74.57
71105;BME280;58760;48.716;8.962;2023-03-01T05:16:46;96980.75;;;-0.83;74.46
71105;BME280;58760;48.716;8.962;2023-03-01T05:19:12;96981.94;;;-0.89;74.51
71105;BME280;58760;48.716;8.962;2023-03-01T05:21:41;96979.59;;;-0.93;74.19
71105;BME280;58760;48.716;8.962;2023-03-01T05:24:27;96981.38;;;-0.80;74.33
71105;BME280;58760;48.716;8.962;2023-03-01T05:26:52;96982.97;;;-0.91;74.02
71105;BME280;58760;48.716;8.962;2023-03-01T05:29:19;96983.72;;;-0.89;74.54
71105;BME280;58760;48.716;8.962;2023-03-01T05:31:58;96977.28;;;-0.84;74.10
71105;BME280;58760;48.716;8.962;2023-03-01T05:36:51;96982.41;;;-0.82;74.32
71105;BME280;58760;48.716;8.962;2023-03-01T05:39:19;96986.88;;;-0.84;74.12
71105;BME280;58760;48.716;8.962;2023-03-01T05:41:46;96992.16;;;-1.00;74.75
71105;BME280;58760;48.716;8.962;2023-03-01T05:44:12;96980.19;;;-0.88;74.72
71105;BME280;58760;48.716;8.962;2023-03-01T05:46:37;96983.53;;;-0.86;73.96
71105;BME280;58760;48.716;8.962;2023-03-01T05:49:02;96980.19;;;-0.88;74.37
71105;BME280;58760;48.716;8.962;2023-03-01T05:51:29;96987.25;;;-1.04;74.35
71105;BME280;58760;48.716;8.962;2023-03-01T05:53:54;96978.66;;;-1.07;74.99
71105;BME280;58760;48.716;8.962;2023-03-01T05:56:20;96976.28;;;-0.95;74.79
71105;BME280;58760;48.716;8.962;2023-03-01T05:58:48;96971.44;;;-1.01;75.18
71105;BME280;58760;48.716;8.962;2023-03-01T06:01:14;96970.59;;;-1.02;75.36
71105;BME280;58760;48.716;8.962;2023-03-01T06:03:39;96978.69;;;-0.92;74.99
71105;BME280;58760;48.716;8.962;2023-03-01T06:06:05;96969.13;;;-0.92;74.77
71105;BME280;58760;48.716;8.962;2023-03-01T06:08:30;96973.75;;;-0.97;75.23
71105;BME280;58760;48.716;8.962;2023-03-01T06:10:55;96979.25;;;-0.87;74.77
71105;BME280;58760;48.716;8.962;2023-03-01T06:13:22;96981.84;;;-0.87;75.26
71105;BME280;58760;48.716;8.962;2023-03-01T06:15:48;96975.63;;;-0.99;74.77
71105;BME280;58760;48.716;8.962;2023-03-01T06:18:13;96967.44;;;-0.79;74.26
71105;BME280;58760;48.716;8.962;2023-03-01T06:20:39;96972.84;;;-0.82;74.64
71105;BME280;58760;48.716;8.962;2023-03-01T06:23:04;96966.41;;;-0.76;74.44
71105;BME280;58760;48.716;8.962;2023-03-01T06:25:30;96968.00;;;-0.74;74.20
71105;BME280;58760;48.716;8.962;2023-03-01T06:27:56;96961.41;;;-0.65;74.15
71105;BME280;58760;48.716;8.962;2023-03-01T06:30:23;96965.47;;;-0.61;74.10
71105;BME280;58760;48.716;8.962;2023-03-01T06:32:49;96961.22;;;-0.62;74.02
71105;BME280;58760;48.716;8.962;2023-03-01T06:35:16;96957.31;;;-0.69;74.04
71105;BME280;58760;48.716;8.962;2023-03-01T06:37:46;96953.38;;;-0.76;74.35
71105;BME280;58760;48.716;8.962;2023-03-01T06:40:12;96968.84;;;-0.73;74.88
71105;BME280;58760;48.716;8.962;2023-03-01T06:42:42;96962.78;;;-0.74;74.68
71105;BME280;58760;48.716;8.962;2023-03-01T06:45:08;96964.47;;;-0.73;74.85
71105;BME280;58760;48.716;8.962;2023-03-01T06:47:34;96960.19;;;-0.74;75.00
71105;BME280;58760;48.716;8.962;2023-03-01T06:50:00;96961.03;;;-0.73;75.03
71105;BME280;58760;48.716;8.962;2023-03-01T06:52:26;96966.97;;;-0.71;75.00
71105;BME280;58760;48.716;8.962;2023-03-01T06:54:51;96957.56;;;-0.74;75.05
71105;BME280;58760;48.716;8.962;2023-03-01T06:57:16;96960.75;;;-0.69;74.97
71105;BME280;58760;48.716;8.962;2023-03-01T06:59:42;96956.34;;;-0.68;74.94
71105;BME280;58760;48.716;8.962;2023-03-01T07:02:10;96952.75;;;-0.66;74.87
71105;BME280;58760;48.716;8.962;2023-03-01T07:04:36;96953.41;;;-0.62;74.75
71105;BME280;58760;48.716;8.962;2023-03-01T07:07:01;96959.25;;;-0.59;74.36
71105;BME280;58760;48.716;8.962;2023-03-01T07:09:27;96963.63;;;-0.59;74.56
71105;BME280;58760;48.716;8.962;2023-03-01T07:11:52;96964.16;;;-0.40;74.46
71105;BME280;58760;48.716;8.962;2023-03-01T07:14:17;96960.06;;;-0.30;73.82
71105;BME280;58760;48.716;8.962;2023-03-01T07:16:45;96954.97;;;-0.19;73.20
71105;BME280;58760;48.716;8.962;2023-03-01T07:19:10;96955.41;;;0.02;72.70
71105;BME280;58760;48.716;8.962;2023-03-01T07:21:36;96952.78;;;0.02;72.61
71105;BME280;58760;48.716;8.962;2023-03-01T07:24:05;96955.16;;;-0.08;72.43
71105;BME280;58760;48.716;8.962;2023-03-01T07:26:31;96943.88;;;-0.08;72.82
71105;BME280;58760;48.716;8.962;2023-03-01T07:28:59;96945.44;;;-0.06;72.30
71105;BME280;58760;48.716;8.962;2023-03-01T07:31:24;96942.50;;;-0.14;72.24
71105;BME280;58760;48.716;8.962;2023-03-01T07:33:53;96944.00;;;-0.24;72.59
71105;BME280;58760;48.716;8.962;2023-03-01T07:36:18;96934.56;;;-0.12;72.93
71105;BME280;58760;48.716;8.962;2023-03-01T07:38:43;96936.03;;;0.06;72.39
71105;BME280;58760;48.716;8.962;2023-03-01T07:41:09;96933.94;;;0.11;72.17
71105;BME280;58760;48.716;8.962;2023-03-01T07:43:34;96931.19;;;0.00;72.03
71105;BME280;58760;48.716;8.962;2023-03-01T07:46:02;96933.56;;;0.30;71.40
71105;BME280;58760;48.716;8.962;2023-03-01T07:48:29;96934.59;;;0.27;70.84
71105;BME280;58760;48.716;8.962;2023-03-01T07:50:58;96920.50;;;0.30;70.65
71105;BME280;58760;48.716;8.962;2023-03-01T07:53:23;96924.88;;;0.17;70.63
71105;BME280;58760;48.716;8.962;2023-03-01T07:55:49;96921.69;;;0.26;70.88
71105;BME280;58760;48.716;8.962;2023-03-01T07:58:14;96916.50;;;0.12;70.84
71105;BME280;58760;48.716;8.962;2023-03-01T08:00:39;96918.28;;;0.11;71.46
71105;BME280;58760;48.716;8.962;2023-03-01T08:03:05;96922.59;;;0.25;70.88
71105;BME280;58760;48.716;8.962;2023-03-01T08:05:30;96921.69;;;0.26;70.91
71105;BME280;58760;48.716;8.962;2023-03-01T08:07:55;96921.06;;;0.35;70.94
71105;BME280;58760;48.716;8.962;2023-03-01T08:10:21;96911.34;;;0.37;70.35
71105;BME280;58760;48.716;8.962;2023-03-01T08:12:46;96916.66;;;0.23;70.65
71105;BME280;58760;48.716;8.962;2023-03-01T08:15:12;96917.59;;;0.22;71.00
71105;BME280;58760;48.716;8.962;2023-03-01T08:17:37;96920.50;;;0.30;70.65
71105;BME280;58760;48.716;8.962;2023-03-01T08:20:03;96925.00;;;0.28;70.86
71105;BME280;58760;48.716;8.962;2023-03-01T08:22:31;96920.00;;;0.25;71.21
71105;BME280;58760;48.716;8.962;2023-03-01T08:24:56;96914.56;;;0.28;70.70
71105;BME280;58760;48.716;8.962;2023-03-01T08:27:22;96917.50;;;0.36;70.80
71105;BME280;58760;48.716;8.962;2023-03-01T08:29:47;96915.44;;;0.41;70.39
71105;BME280;58760;48.716;8.962;2023-03-01T08:32:12;96914.19;;;0.46;70.10
71105;BME280;58760;48.716;8.962;2023-03-01T08:34:38;96915.97;;;0.46;70.60
71105;BME280;58760;48.716;8.962;2023-03-01T08:37:03;96916.91;;;0.45;70.29
71105;BME280;58760;48.716;8.962;2023-03-01T08:39:29;96908.88;;;0.48;70.32
71105;BME280;58760;48.716;8.962;2023-03-01T08:41:54;96918.91;;;0.54;70.56
71105;BME280;58760;48.716;8.962;2023-03-01T08:44:20;96910.47;;;0.63;70.34
71105;BME280;58760;48.716;8.962;2023-03-01T08:46:46;96909.25;;;0.81;69.11
71105;BME280;58760;48.716;8.962;2023-03-01T08:49:14;96910.59;;;0.74;69.02
71105;BME280;58760;48.716;8.962;2023-03-01T08:51:40;96902.34;;;0.80;69.20
71105;BME280;58760;48.716;8.962;2023-03-01T08:54:09;96910.38;;;0.90;69.03
71105;BME280;58760;48.716;8.962;2023-03-01T08:56:36;96904.81;;;0.94;68.84
71105;BME280;58760;48.716;8.962;2023-03-01T08:59:01;96897.00;;;1.07;68.00
71105;BME280;58760;48.716;8.962;2023-03-01T09:01:27;96891.53;;;1.23;67.50
71105;BME280;58760;48.716;8.962;2023-03-01T09:03:52;96890.69;;;1.35;67.32
71105;BME280;58760;48.716;8.962;2023-03-01T09:06:18;96893.25;;;1.47;66.61
71105;BME280;58760;48.716;8.962;2023-03-01T09:08:45;96880.59;;;1.54;66.06
71105;BME280;58760;48.716;8.962;2023-03-01T09:11:14;96880.66;;;1.65;65.77
71105;BME280;58760;48.716;8.962;2023-03-01T09:13:41;96880.44;;;1.68;65.37
71105;BME280;58760;48.716;8.962;2023-03-01T09:16:07;96881.78;;;1.97;64.29
71105;BME280;58760;48.716;8.962;2023-03-01T09:18:34;96869.50;;;2.10;64.29
71105;BME280;58760;48.716;8.962;2023-03-01T09:21:05;96864.00;;;2.37;63.60
71105;BME280;58760;48.716;8.962;2023-03-01T09:23:34;96863.78;;;2.40;62.97
71105;BME280;58760;48.716;8.962;2023-03-01T09:26:01;96858.44;;;2.53;63.57
71105;BME280;58760;48.716;8.962;2023-03-01T09:28:27;96853.06;;;2.54;62.29
71105;BME280;58760;48.716;8.962;2023-03-01T09:30:52;96838.59;;;2.73;61.40
71105;BME280;58760;48.716;8.962;2023-03-01T09:33:18;96843.69;;;2.63;62.05
71105;BME280;58760;48.716;8.962;2023-03-01T09:35:43;96854.97;;;2.52;61.62
71105;BME280;58760;48.716;8.962;2023-03-01T09:38:13;96849.75;;;2.52;61.84
71105;BME280;58760;48.716;8.962;2023-03-01T09:40:42;96845.81;;;2.58;61.95
71105;BME280;58760;48.716;8.962;2023-03-01T09:43:15;96852.53;;;2.84;61.13
71105;BME280;58760;48.716;8.962;2023-03-01T09:45:45;96855.41;;;2.92;60.70
71105;BME280;58760;48.716;8.962;2023-03-01T09:48:20;96853.09;;;2.77;60.38
71105;BME280;58760;48.716;8.962;2023-03-01T09:50:50;96855.41;;;2.92;60.52
71105;BME280;58760;48.716;8.962;2023-03-01T09:53:20;96848.47;;;2.80;61.13
71105;BME280;58760;48.716;8.962;2023-03-01T09:58:37;96848.13;;;2.85;60.80
71105;BME280;58760;48.716;8.962;2023-03-01T10:01:30;96852.06;;;3.01;60.83
71105;BME280;58760;48.716;8.962;2023-03-01T10:09:41;96843.00;;;3.16;59.39
71105;BME280;58760;48.716;8.962;2023-03-01T10:12:20;96835.53;;;3.12;60.88
71105;BME280;58760;48.716;8.962;2023-03-01T10:15:09;96833.00;;;3.10;59.95
71105;BME280;58760;48.716;8.962;2023-03-01T10:17:48;96823.09;;;3.36;59.70
71105;BME280;58760;48.716;8.962;2023-03-01T10:20:16;96820.56;;;3.46;60.48
71105;BME280;58760;48.716;8.962;2023-03-01T10:22:42;96817.19;;;3.55;58.46
71105;BME280;58760;48.716;8.962;2023-03-01T10:25:14;96820.13;;;3.41;58.71
71105;BME280;58760;48.716;8.962;2023-03-01T10:27:49;96820.34;;;3.38;58.36
71105;BME280;58760;48.716;8.962;2023-03-01T10:30:20;96814.97;;;3.50;60.34
71105;BME280;58760;48.716;8.962;2023-03-01T10:32:49;96813.38;;;3.59;58.31
71105;BME280;58760;48.716;8.962;2023-03-01T10:40:29;96809.06;;;3.69;57.23
71105;BME280;58760;48.716;8.962;2023-03-01T10:42:58;96797.53;;;3.60;57.50
71105;BME280;58760;48.716;8.962;2023-03-01T10:45:38;96797.41;;;3.62;57.72
71105;BME280;58760;48.716;8.962;2023-03-01T10:48:15;96793.91;;;3.73;58.35
71105;BME280;58760;48.716;8.962;2023-03-01T10:50:44;96797.06;;;3.87;58.25
71105;BME280;58760;48.716;8.962;2023-03-01T10:53:35;96807.16;;;4.03;57.45
71105;BME280;58760;48.716;8.962;2023-03-01T10:56:07;96796.53;;;4.04;56.18
71105;BME280;58760;48.716;8.962;2023-03-01T10:58:36;96786.28;;;4.01;55.96
71105;BME280;58760;48.716;8.962;2023-03-01T11:01:05;96790.00;;;4.19;57.08
71105;BME280;58760;48.716;8.962;2023-03-01T11:03:36;96786.53;;;4.40;55.53
71105;BME280;58760;48.716;8.962;2023-03-01T11:06:04;96775.34;;;4.38;56.71
71105;BME280;58760;48.716;8.962;2023-03-01T11:08:47;96767.44;;;4.89;58.16
71105;BME280;58760;48.716;8.962;2023-03-01T11:14:20;96762.09;;;5.00;55.13
71105;BME280;58760;48.716;8.962;2023-03-01T11:16:49;96762.19;;;5.28;55.59
71105;BME280;58760;48.716;8.962;2023-03-01T11:19:22;96753.31;;;5.20;53.01
71105;BME280;58760;48.716;8.962;2023-03-01T11:22:13;96747.84;;;5.02;53.02
71105;BME280;58760;48.716;8.962;2023-03-01T11:24:54;96755.41;;;4.86;54.14
71105;BME280;58760;48.716;8.962;2023-03-01T11:27:26;96749.47;;;5.53;54.75
71105;BME280;58760;48.716;8.962;2023-03-01T11:32:26;96739.66;;;5.55;51.53
71105;BME280;58760;48.716;8.962;2023-03-01T11:35:14;96735.06;;;5.47;54.07
71105;BME280;58760;48.716;8.962;2023-03-01T11:51:09;96709.97;;;6.39;51.44
71105;BME280;58760;48.716;8.962;2023-03-01T11:56:38;96704.38;;;7.16;48.58
71105;BME280;58760;48.716;8.962;2023-03-01T12:07:21;96662.22;;;11.69;37.72
71105;BME280;58760;48.716;8.962;2023-03-01T12:10:00;96654.09;;;12.31;36.95
71105;BME280;58760;48.716;8.962;2023-03-01T12:12:43;96648.53;;;13.14;34.91
71105;BME280;58760;48.716;8.962;2023-03-01T12:18:23;96642.97;;;13.80;33.72
71105;BME280;58760;48.716;8.962;2023-03-01T12:29:26;96622.81;;;13.99;34.58
71105;BME280;58760;48.716;8.962;2023-03-01T12:32:15;96607.75;;;14.34;33.07
71105;BME280;58760;48.716;8.962;2023-03-01T12:34:55;96608.47;;;14.49;33.29
71105;BME280;58760;48.716;8.962;2023-03-01T12:48:40;96595.84;;;15.52;30.00
71105;BME280;58760;48.716;8.962;2023-03-01T12:51:12;96584.16;;;15.73;31.54
71105;BME280;58760;48.716;8.962;2023-03-01T12:53:46;96580.03;;;15.97;29.54
71105;BME280;58760;48.716;8.962;2023-03-01T12:56:16;96565.88;;;17.51;27.81
71105;BME280;58760;48.716;8.962;2023-03-01T13:07:30;96537.88;;;16.96;28.62
71105;BME280;58760;48.716;8.962;2023-03-01T13:10:26;96540.28;;;18.78;25.53
71105;BME280;58760;48.716;8.962;2023-03-01T13:23:27;96542.91;;;17.93;26.30
71105;BME280;58760;48.716;8.962;2023-03-01T13:33:47;96536.47;;;19.52;25.01
71105;BME280;58760;48.716;8.962;2023-03-01T13:41:55;96531.28;;;19.21;24.50
71105;BME280;58760;48.716;8.962;2023-03-01T13:46:48;96520.94;;;18.52;25.22
71105;BME280;58760;48.716;8.962;2023-03-01T13:49:20;96512.75;;;18.40;25.47
71105;BME280;58760;48.716;8.962;2023-03-01T13:51:47;96527.19;;;18.21;26.34
71105;BME280;58760;48.716;8.962;2023-03-01T13:54:15;96532.06;;;18.73;24.62
71105;BME280;58760;48.716;8.962;2023-03-01T13:56:41;96522.38;;;17.80;26.26
71105;BME280;58760;48.716;8.962;2023-03-01T13:59:20;96523.13;;;19.46;24.99
71105;BME280;58760;48.716;8.962;2023-03-01T14:01:53;96530.38;;;19.87;23.75
71105;BME280;58760;48.716;8.962;2023-03-01T14:04:24;96533.09;;;18.91;24.36
71105;BME280;58760;48.716;8.962;2023-03-01T14:06:51;96515.31;;;19.08;24.99
71105;BME280;58760;48.716;8.962;2023-03-01T14:09:25;96517.88;;;19.32;24.33
71105;BME280;58760;48.716;8.962;2023-03-01T14:12:24;96508.06;;;19.56;24.51
71105;BME280;58760;48.716;8.962;2023-03-01T14:15:15;96501.72;;;20.15;23.93
71105;BME280;58760;48.716;8.962;2023-03-01T14:17:48;96513.03;;;19.23;24.42
71105;BME280;58760;48.716;8.962;2023-03-01T14:21:01;96516.19;;;19.20;24.46
71105;BME280;58760;48.716;8.962;2023-03-01T14:23:13;96515.84;;;18.37;25.48
71105;BME280;58760;48.716;8.962;2023-03-01T14:25:47;96522.13;;;18.31;25.45
71105;BME280;58760;48.716;8.962;2023-03-01T14:28:23;96521.78;;;18.03;25.99
71105;BME280;58760;48.716;8.962;2023-03-01T14:30:52;96525.94;;;17.74;27.28
71105;BME280;58760;48.716;8.962;2023-03-01T14:33:20;96525.31;;;18.46;27.06
71105;BME280;58760;48.716;8.962;2023-03-01T14:36:15;96518.44;;;18.50;25.22
71105;BME280;58760;48.716;8.962;2023-03-01T14:38:51;96526.69;;;18.55;25.38
71105;BME280;58760;48.716;8.962;2023-03-01T14:41:25;96530.22;;;18.06;25.42
71105;BME280;58760;48.716;8.962;2023-03-01T14:43:58;96530.66;;;18.03;26.38
71105;BME280;58760;48.716;8.962;2023-03-01T14:46:39;96525.66;;;18.74;25.25
71105;BME280;58760;48.716;8.962;2023-03-01T14:49:14;96536.34;;;19.47;24.25
71105;BME280;58760;48.716;8.962;2023-03-01T14:51:42;96545.69;;;19.74;24.60
71105;BME280;58760;48.716;8.962;2023-03-01T14:54:37;96547.03;;;19.36;25.42
71105;BME280;58760;48.716;8.962;2023-03-01T14:57:05;96547.34;;;19.87;23.68
71105;BME280;58760;48.716;8.962;2023-03-01T14:59:33;96549.22;;;19.09;24.44
71105;BME280;58760;48.716;8.962;2023-03-01T15:01:58;96547.47;;;18.85;25.22
71105;BME280;58760;48.716;8.962;2023-03-01T15:04:26;96540.72;;;18.94;25.40
71105;BME280;58760;48.716;8.962;2023-03-01T15:06:54;96549.81;;;19.47;24.39
71105;BME280;58760;48.716;8.962;2023-03-01T15:09:20;96548.72;;;18.82;25.07
71105;BME280;58760;48.716;8.962;2023-03-01T15:11:47;96549.75;;;16.55;27.52